Aérodrome :
LOGIN :

S'inscrire | Disclaimer

   EN    FR    IT 

 










Légende :    VFR   VFR Marginal   IFR   IFR Intensif   IFR Très Intensif
Visi : 
Plafond : 
>= 8 km
>= 3000ft
5 à 8 km
1000 à 3000 ft
1500m à 5 km
500 à 1000 ft
800 à 1500m
200 à 500 ft
< 800m
< 200 ft
Symboles :   Orages  Brouillard  Fortes neiges  Fortes précipitations  Vent > 20 kt
SIGMETs :   Divers  Orages  Givrage  Turbulence  Onde Orograph.  Cendres Volcan.







- Altitude de l'aérodrome : 896 ft


LOAN - Wiener Neustadt East

DERNIER METAR :
  • 151100Z 13015KT 30KM FEW050CU BKN300CI

METARs EXPIRÉS :
  • 151000Z 14012KT 30KM FEW050CU BKN300CI
  • 150900Z 12012KT 30KM FEW120AC BKN300CI

TAF TAF LOAN
Valide du 15 à 12h jusqu'au 15 à 21h UTC


151125Z 1512/1521 12010KT 9999 FEW100 BKN300
TEMPO 1512/1516 14015G25KT
Pas de NOTAMs connus pour ce terrain.
1 SIGMET publié pour la FIR Wien (LOVV) :
 
Onde orographique forte
LOVV SIGMET 3 VALID 151000/151300 LOWW
LOVV WIEN FIR SEV MTW FCST WI N4740 E01215 - N4810 E01305 - N4835 E01455 - N4740 E01545 - N4715 E01225 - N4740 E01215 FL330/390 STNR NC=



MET'MAP, la Météo Aéronautique d'un coup d'oeil ! - Copyright ORBIFLY Décembre 2007 - Disclaimer

ORBIFLY MET'MAP TEAM :

Programmation & Développement : Alexandra Zaïnal
Conception & Développement : Baudouin d'Aumeries
Co-Programmation & Développement : Marc-Olivier Méhu
Soutien technique & logistique : Manuel Goepfert

Contact : metmap@orbifly.com




SOURCES & CREDITS :

   NOAA